createdAt,value
2019-05-17T15:19:09.511Z,63.08
2019-05-17T18:01:05.182Z,76.43
2019-05-17T18:03:37.208Z,76.17
2019-05-17T18:06:10.487Z,75.94
2019-05-17T18:08:43.305Z,75.34
2019-05-17T18:11:16.435Z,74.51
2019-05-17T18:13:50.071Z,74.54
2019-05-17T18:16:25.885Z,73.83
2019-05-17T18:18:58.608Z,73.55
2019-05-17T18:21:31.296Z,73.32
2019-05-17T18:24:04.326Z,72.59
2019-05-17T18:26:37.580Z,72.51
2019-05-17T18:29:13.836Z,72.28
2019-05-17T18:31:46.923Z,72.29
2019-05-17T18:34:19.969Z,72.50
2019-05-17T18:36:53.602Z,72.42
2019-05-17T18:39:27.802Z,72.07
2019-05-17T18:42:00.984Z,73.04
2019-05-17T18:44:34.002Z,72.65
2019-05-17T18:47:06.524Z,72.38
2019-05-17T18:49:38.916Z,72.27
2019-05-17T18:52:12.197Z,71.34
2019-05-17T18:54:45.018Z,70.85
2019-05-17T18:57:17.977Z,70.94
2019-05-17T18:59:50.577Z,70.62
2019-05-17T19:02:23.939Z,70.07
2019-05-17T19:04:56.878Z,69.89
2019-05-17T19:07:30.871Z,68.54
2019-05-17T19:10:03.420Z,69.03
2019-05-17T19:12:36.720Z,68.44
2019-05-17T19:15:10.603Z,69.10
2019-05-17T19:17:43.155Z,69.90
2019-05-17T19:20:16.921Z,69.56
2019-05-17T19:22:50.135Z,70.05
2019-05-17T19:25:22.904Z,70.56
2019-05-17T19:27:56.252Z,70.12
2019-05-17T19:30:30.209Z,70.36
2019-05-17T19:33:03.455Z,70.60
2019-05-17T19:35:37.693Z,70.58
2019-05-17T19:38:10.846Z,69.77
2019-05-17T19:40:43.283Z,70.48
2019-05-17T19:43:15.749Z,70.17
2019-05-17T19:45:48.794Z,69.33
2019-05-17T19:48:21.796Z,70.06
2019-05-17T19:50:57.993Z,70.46
2019-05-17T19:53:30.256Z,71.08
2019-05-17T19:56:03.166Z,70.22
2019-05-17T19:58:35.984Z,70.33
2019-05-17T20:01:08.784Z,70.36
2019-05-17T20:03:41.835Z,70.37
2019-05-17T20:06:14.917Z,70.60
2019-05-17T20:08:47.771Z,70.66
2019-05-17T20:11:33.650Z,71.12
2019-05-17T20:13:55.756Z,71.23
2019-05-17T20:16:39.241Z,70.75
2019-05-17T20:19:12.284Z,70.66
2019-05-17T20:21:44.974Z,70.65
2019-05-17T20:24:18.658Z,70.26
2019-05-17T20:27:01.101Z,69.64
2019-05-17T20:29:34.651Z,69.87
2019-05-17T20:32:07.624Z,69.99
2019-05-17T20:34:40.151Z,69.65
2019-05-17T20:37:13.262Z,70.18
2019-05-17T20:39:46.503Z,69.79
2019-05-17T20:42:19.258Z,70.17
2019-05-17T20:44:51.468Z,69.67
2019-05-17T20:47:31.922Z,70.34
2019-05-17T20:50:05.567Z,70.08
2019-05-17T20:52:38.197Z,69.95
2019-05-17T20:55:10.955Z,70.28
2019-05-17T20:57:44.220Z,69.56
2019-05-17T21:00:17.361Z,70.09
2019-05-17T21:02:50.578Z,69.60
2019-05-17T21:05:24.301Z,70.03
2019-05-17T21:07:56.958Z,70.03
2019-05-17T21:10:29.532Z,71.03
2019-05-17T21:13:02.269Z,70.61
2019-05-17T21:15:47.031Z,70.56
2019-05-17T21:18:08.690Z,71.20
2019-05-17T21:20:41.275Z,70.78
2019-05-17T21:23:13.884Z,71.08
2019-05-17T21:25:47.328Z,70.96
2019-05-17T21:28:19.980Z,71.62
2019-05-17T21:30:53.648Z,72.17
2019-05-17T21:33:26.742Z,71.92
2019-05-17T21:36:00.260Z,72.17
2019-05-17T21:38:33.179Z,71.74
2019-05-17T21:41:05.224Z,72.05
2019-05-17T21:43:38.907Z,70.91
2019-05-17T21:46:11.940Z,72.23
2019-05-17T21:48:51.758Z,71.81
2019-05-17T21:51:24.016Z,71.59
2019-05-17T21:53:59.709Z,70.66
2019-05-17T21:56:32.571Z,71.54
2019-05-17T21:59:05.003Z,72.50
2019-05-17T22:01:45.296Z,71.09
2019-05-17T22:04:18.222Z,71.95
2019-05-17T22:06:51.958Z,70.41
2019-05-17T22:09:24.868Z,69.92
2019-05-17T22:12:00.291Z,70.42
2019-05-17T22:14:33.333Z,66.56
2019-05-17T22:17:06.302Z,70.30
2019-05-17T22:19:38.638Z,69.32
2019-05-17T22:22:18.071Z,71.20
2019-05-17T22:24:51.101Z,70.26
2019-05-17T22:27:23.742Z,71.75
2019-05-17T22:29:56.656Z,70.29
2019-05-17T22:32:30.319Z,66.71
2019-05-17T22:35:09.102Z,70.42
2019-05-17T22:37:41.778Z,68.29
2019-05-17T22:40:14.421Z,71.42
2019-05-17T22:42:47.213Z,71.35
2019-05-17T22:45:20.234Z,72.99
2019-05-17T22:47:53.146Z,72.75
2019-05-17T22:50:33.930Z,72.92
2019-05-17T22:53:07.354Z,71.50
2019-05-17T22:55:42.423Z,71.91
2019-05-17T22:58:15.530Z,71.73
2019-05-17T23:00:58.024Z,70.86
2019-05-17T23:03:31.849Z,72.15
2019-05-17T23:06:05.206Z,70.46
2019-05-17T23:08:38.107Z,73.39
2019-05-17T23:11:11.157Z,72.19
2019-05-17T23:13:44.185Z,73.87
2019-05-17T23:16:17.342Z,73.74
2019-05-17T23:18:52.852Z,73.95
2019-05-17T23:21:25.674Z,74.83
2019-05-17T23:23:58.802Z,73.63
2019-05-17T23:26:38.268Z,74.18
2019-05-17T23:29:12.136Z,73.35
2019-05-17T23:31:45.050Z,73.52
2019-05-17T23:34:25.094Z,73.01
2019-05-17T23:36:59.713Z,72.77
2019-05-17T23:39:35.085Z,72.63
2019-05-17T23:42:07.831Z,71.13
2019-05-17T23:44:40.639Z,71.11
2019-05-17T23:50:12.234Z,70.48
2019-05-17T23:52:45.841Z,70.91
2019-05-17T23:55:18.949Z,69.31
2019-05-17T23:57:52.264Z,71.17
